createdAt,value
2023-02-01T00:01:51.312Z,8.40
2023-02-01T00:04:17.517Z,8.32
2023-02-01T00:06:43.714Z,8.38
2023-02-01T00:09:09.925Z,9.23
2023-02-01T00:11:36.145Z,8.43
2023-02-01T00:14:02.383Z,9.40
2023-02-01T00:16:29.449Z,8.88
2023-02-01T00:19:10.372Z,9.27
2023-02-01T00:21:36.575Z,9.38
2023-02-01T00:24:02.921Z,9.32
2023-02-01T00:26:33.754Z,8.85
2023-02-01T00:29:00.948Z,8.75
2023-02-01T00:31:29.442Z,8.35
2023-02-01T00:33:55.988Z,8.02
2023-02-01T00:36:22.264Z,8.18
2023-02-01T00:38:48.793Z,8.20
2023-02-01T00:41:16.298Z,7.70
2023-02-01T00:43:42.586Z,7.60
2023-02-01T00:46:09.369Z,6.95
2023-02-01T00:48:35.665Z,7.18
2023-02-01T00:51:02.221Z,6.35
2023-02-01T00:53:28.675Z,6.68
2023-02-01T00:55:54.881Z,6.53
2023-02-01T00:58:21.321Z,6.00
2023-02-01T01:00:48.308Z,6.15
2023-02-01T01:03:20.490Z,6.13
2023-02-01T01:05:47.985Z,5.82
2023-02-01T01:08:14.489Z,6.03
2023-02-01T01:10:41.176Z,5.50
2023-02-01T01:13:07.739Z,5.93
2023-02-01T01:15:38.003Z,5.60
2023-02-01T01:18:04.431Z,5.95
2023-02-01T01:20:30.667Z,5.25
2023-02-01T01:22:56.870Z,5.40
2023-02-01T01:25:23.125Z,5.18
2023-02-01T01:27:49.417Z,5.15
2023-02-01T01:30:15.852Z,4.70
2023-02-01T01:32:42.093Z,5.45
2023-02-01T01:35:08.614Z,5.88
2023-02-01T01:37:36.304Z,5.30
2023-02-01T01:40:03.093Z,5.22
2023-02-01T01:42:29.339Z,5.38
2023-02-01T01:44:55.512Z,5.63
2023-02-01T01:47:21.735Z,4.65
2023-02-01T01:49:48.049Z,4.68
2023-02-01T01:52:14.861Z,5.32
2023-02-01T01:54:49.503Z,4.60
2023-02-01T01:57:18.388Z,5.13
2023-02-01T01:59:47.598Z,4.80
2023-02-01T02:02:13.810Z,4.47
2023-02-01T02:04:40.169Z,5.15
2023-02-01T02:07:09.316Z,4.47
2023-02-01T02:09:35.602Z,5.15
2023-02-01T02:12:01.798Z,4.95
2023-02-01T02:14:28.054Z,4.78
2023-02-01T02:16:54.324Z,4.93
2023-02-01T02:19:23.509Z,5.03
2023-02-01T02:22:04.935Z,5.60
2023-02-01T02:24:46.004Z,5.22
2023-02-01T02:27:30.972Z,5.35
2023-02-01T02:29:57.144Z,5.60
2023-02-01T02:32:41.863Z,6.88
2023-02-01T02:35:34.515Z,6.97
2023-02-01T02:38:06.367Z,6.03
2023-02-01T02:40:52.814Z,6.07
2023-02-01T02:43:42.498Z,7.10
2023-02-01T02:46:40.805Z,6.93
2023-02-01T02:49:16.482Z,6.65
2023-02-01T02:52:04.236Z,7.38
2023-02-01T02:54:48.209Z,7.13
2023-02-01T02:57:38.117Z,6.53
2023-02-01T03:00:24.828Z,6.18
2023-02-01T03:03:10.024Z,7.18
2023-02-01T03:05:36.998Z,6.63
2023-02-01T03:08:03.326Z,6.65
2023-02-01T03:10:29.498Z,7.28
2023-02-01T03:12:56.149Z,6.88
2023-02-01T03:15:25.288Z,7.38
2023-02-01T03:17:51.511Z,7.43
2023-02-01T03:20:21.088Z,7.22
2023-02-01T03:22:49.004Z,7.35
2023-02-01T03:25:20.004Z,7.75
2023-02-01T03:27:46.385Z,6.32
2023-02-01T03:30:22.157Z,8.35
2023-02-01T03:33:02.711Z,7.72
2023-02-01T03:35:34.575Z,7.28
2023-02-01T03:38:19.142Z,7.43
2023-02-01T03:40:47.705Z,8.30
2023-02-01T03:43:16.212Z,7.38
2023-02-01T03:45:44.291Z,7.80
2023-02-01T03:48:11.333Z,7.50
2023-02-01T03:50:39.484Z,7.07
2023-02-01T03:53:10.952Z,6.90
2023-02-01T03:58:03.291Z,7.70
2023-02-01T04:00:29.531Z,6.47
2023-02-01T04:02:55.758Z,7.05
2023-02-01T04:05:22.343Z,6.28
2023-02-01T04:07:48.803Z,6.20
2023-02-01T04:10:16.928Z,7.43
2023-02-01T04:12:44.252Z,6.55
2023-02-01T04:15:10.597Z,6.45
2023-02-01T04:20:02.133Z,7.20
2023-02-01T04:22:29.593Z,6.88
2023-02-01T04:24:55.799Z,5.78
2023-02-01T04:27:22.016Z,6.85
2023-02-01T04:29:50.451Z,6.60
2023-02-01T04:32:17.174Z,6.90
2023-02-01T04:34:43.789Z,6.55
2023-02-01T04:37:10.329Z,6.30
2023-02-01T04:39:36.509Z,6.60
2023-02-01T04:42:02.728Z,5.97
2023-02-01T04:44:28.929Z,5.95
2023-02-01T04:46:55.231Z,5.93
2023-02-01T04:49:22.284Z,5.55
2023-02-01T04:51:48.848Z,7.13
2023-02-01T04:54:15.306Z,5.57
2023-02-01T04:56:41.537Z,6.10
2023-02-01T04:59:07.812Z,5.70
2023-02-01T05:01:34.059Z,5.45
2023-02-01T05:04:00.343Z,5.05
2023-02-01T05:06:26.540Z,5.50
2023-02-01T05:08:52.812Z,6.50
2023-02-01T05:11:37.665Z,6.03
2023-02-01T05:14:03.872Z,6.53
2023-02-01T05:16:30.131Z,5.88
2023-02-01T05:18:56.375Z,5.43
2023-02-01T05:21:22.620Z,6.57
2023-02-01T05:24:08.811Z,4.88
2023-02-01T05:26:35.057Z,6.05
2023-02-01T05:29:01.285Z,5.10
2023-02-01T05:31:27.771Z,5.00
2023-02-01T05:33:54.063Z,5.53
2023-02-01T05:36:20.535Z,5.45
2023-02-01T05:38:46.789Z,5.47
2023-02-01T05:41:12.996Z,5.93
2023-02-01T05:43:39.327Z,5.47
2023-02-01T05:46:05.579Z,5.22
2023-02-01T05:48:31.878Z,6.55
2023-02-01T05:50:58.065Z,4.70
2023-02-01T05:53:24.363Z,5.72
2023-02-01T05:55:50.602Z,4.20
2023-02-01T05:58:16.812Z,4.35
2023-02-01T06:00:43.086Z,5.45
2023-02-01T06:03:09.294Z,4.90
2023-02-01T06:05:35.565Z,4.13
2023-02-01T06:08:01.881Z,4.38
2023-02-01T06:10:28.086Z,4.50
2023-02-01T06:12:54.276Z,4.60
2023-02-01T06:15:20.697Z,5.15
2023-02-01T06:17:46.995Z,5.10
2023-02-01T06:20:14.383Z,4.72
2023-02-01T06:22:40.694Z,4.63
2023-02-01T06:25:07.965Z,5.10
2023-02-01T06:27:34.284Z,4.72
2023-02-01T06:30:00.506Z,5.28
2023-02-01T06:32:26.735Z,4.15
2023-02-01T06:34:53.423Z,4.85
2023-02-01T06:37:20.323Z,4.82
2023-02-01T06:39:46.584Z,5.45
2023-02-01T06:42:12.804Z,5.55
2023-02-01T06:44:39.014Z,4.95
2023-02-01T06:47:06.755Z,5.13
2023-02-01T06:49:34.988Z,5.72
2023-02-01T06:52:01.355Z,4.60
2023-02-01T06:54:28.313Z,5.50
2023-02-01T06:56:54.699Z,5.07
2023-02-01T06:59:20.932Z,5.22
2023-02-01T07:01:47.147Z,5.35
2023-02-01T07:04:13.422Z,5.82
2023-02-01T07:06:40.411Z,4.60
2023-02-01T07:09:07.315Z,6.20
2023-02-01T07:11:33.586Z,5.47
2023-02-01T07:14:00.049Z,5.25
2023-02-01T07:16:26.457Z,6.05
2023-02-01T07:18:53.572Z,6.00
2023-02-01T07:21:20.262Z,5.32
2023-02-01T07:23:46.796Z,5.72
2023-02-01T07:26:14.028Z,5.25
2023-02-01T07:28:40.813Z,5.45
2023-02-01T07:31:08.244Z,5.32
2023-02-01T07:33:35.007Z,4.82
2023-02-01T07:36:02.554Z,5.38
2023-02-01T07:38:29.289Z,5.30
2023-02-01T07:41:02.135Z,6.45
2023-02-01T07:43:28.823Z,5.75
2023-02-01T07:45:55.094Z,5.15
2023-02-01T07:48:22.444Z,5.15
2023-02-01T07:50:48.942Z,6.18
2023-02-01T07:53:15.177Z,6.20
2023-02-01T07:55:41.591Z,5.13
2023-02-01T07:58:07.834Z,4.72
2023-02-01T08:00:52.872Z,4.95
2023-02-01T08:03:19.225Z,6.07
2023-02-01T08:05:45.423Z,5.28
2023-02-01T08:08:11.629Z,5.05
2023-02-01T08:10:37.827Z,5.30
2023-02-01T08:13:04.067Z,4.90
2023-02-01T08:15:30.860Z,5.22
2023-02-01T08:17:57.834Z,4.75
2023-02-01T08:20:24.857Z,5.22
2023-02-01T08:22:54.056Z,5.22
2023-02-01T08:25:20.672Z,5.65
2023-02-01T08:27:46.882Z,5.53
2023-02-01T08:30:13.318Z,5.30
2023-02-01T08:32:39.541Z,5.70
2023-02-01T08:35:05.974Z,5.00
2023-02-01T08:37:32.248Z,5.75
2023-02-01T08:39:58.540Z,5.47
2023-02-01T08:42:43.241Z,5.45
2023-02-01T08:45:09.678Z,6.18
2023-02-01T08:47:36.297Z,6.65
2023-02-01T08:50:02.631Z,6.05
2023-02-01T08:52:28.913Z,5.93
2023-02-01T08:54:55.113Z,5.25
2023-02-01T08:57:21.368Z,5.75
2023-02-01T08:59:48.192Z,5.20
2023-02-01T09:02:15.378Z,5.85
2023-02-01T09:04:42.294Z,5.18
2023-02-01T09:07:09.295Z,4.38
2023-02-01T09:09:35.566Z,4.85
2023-02-01T09:12:01.889Z,5.30
2023-02-01T09:14:28.134Z,5.20
2023-02-01T09:16:54.349Z,6.18
2023-02-01T09:19:26.390Z,4.93
2023-02-01T09:21:53.296Z,5.28
2023-02-01T09:24:19.642Z,5.35
2023-02-01T09:26:45.890Z,5.30
2023-02-01T09:29:12.285Z,4.85
2023-02-01T09:31:41.957Z,4.80
2023-02-01T09:34:10.268Z,4.47
2023-02-01T09:36:36.734Z,5.03
2023-02-01T09:39:03.260Z,4.82
2023-02-01T09:41:56.115Z,5.20
2023-02-01T09:44:25.568Z,4.85
2023-02-01T09:46:57.016Z,5.75
2023-02-01T09:49:27.630Z,4.50
2023-02-01T09:51:54.974Z,5.13
2023-02-01T09:54:23.858Z,5.30
2023-02-01T09:56:53.938Z,5.13
2023-02-01T09:59:20.153Z,4.93
2023-02-01T10:01:46.525Z,5.38
2023-02-01T10:04:13.790Z,5.57
2023-02-01T10:06:42.780Z,5.70
2023-02-01T10:09:24.977Z,5.50
2023-02-01T10:12:09.844Z,5.50
2023-02-01T10:14:48.679Z,5.30
2023-02-01T10:17:25.062Z,5.30
2023-02-01T10:19:59.047Z,4.75
2023-02-01T10:22:55.964Z,4.63
2023-02-01T10:25:43.876Z,4.90
2023-02-01T10:28:14.197Z,5.85
2023-02-01T10:30:43.887Z,5.00
2023-02-01T10:33:18.887Z,4.93
2023-02-01T10:35:46.343Z,4.35
2023-02-01T10:38:17.877Z,4.78
2023-02-01T10:43:10.526Z,4.50
2023-02-01T10:45:38.147Z,4.72
2023-02-01T10:48:05.022Z,4.40
2023-02-01T10:50:35.609Z,4.18
2023-02-01T10:53:12.975Z,4.82
2023-02-01T10:55:41.541Z,4.57
2023-02-01T10:58:28.730Z,4.30
2023-02-01T11:00:58.069Z,5.25
2023-02-01T11:03:30.145Z,4.55
2023-02-01T11:05:56.459Z,4.75
2023-02-01T11:08:22.844Z,4.53
2023-02-01T11:10:57.281Z,4.00
2023-02-01T11:13:28.635Z,4.35
2023-02-01T11:15:57.190Z,4.78
2023-02-01T11:18:28.113Z,4.07
2023-02-01T11:20:55.942Z,4.73
2023-02-01T11:23:27.222Z,4.75
2023-02-01T11:25:57.946Z,4.22
2023-02-01T11:28:25.971Z,4.78
2023-02-01T11:30:54.097Z,5.15
2023-02-01T11:33:22.189Z,5.47
2023-02-01T11:35:48.960Z,5.60
2023-02-01T11:38:34.092Z,4.57
2023-02-01T11:41:14.149Z,4.95
2023-02-01T11:43:51.262Z,4.47
2023-02-01T11:46:23.406Z,6.30
2023-02-01T11:48:49.652Z,5.13
2023-02-01T11:51:30.182Z,4.38
2023-02-01T11:54:19.835Z,5.57
2023-02-01T11:56:49.241Z,4.78
2023-02-01T11:59:33.681Z,5.20
2023-02-01T12:02:10.800Z,4.30
2023-02-01T12:04:58.418Z,4.20
2023-02-01T12:07:38.525Z,5.05
2023-02-01T12:10:17.651Z,4.80
2023-02-01T12:12:59.282Z,4.45
2023-02-01T12:18:13.061Z,4.95
2023-02-01T12:20:48.540Z,4.15
2023-02-01T12:23:27.198Z,4.10
2023-02-01T12:26:11.988Z,4.20
2023-02-01T12:28:50.395Z,4.32
2023-02-01T12:31:25.462Z,4.43
2023-02-01T12:33:58.721Z,4.80
2023-02-01T12:36:30.000Z,3.63
2023-02-01T12:39:00.557Z,3.97
2023-02-01T12:41:38.562Z,4.60
2023-02-01T12:44:23.627Z,5.07
2023-02-01T12:47:00.398Z,4.57
2023-02-01T12:49:52.892Z,4.43
2023-02-01T12:52:22.366Z,4.45
2023-02-01T12:54:56.578Z,4.78
2023-02-01T12:57:33.423Z,4.28
2023-02-01T13:00:07.347Z,3.85
2023-02-01T13:02:51.236Z,4.60
2023-02-01T13:05:26.230Z,4.53
2023-02-01T13:08:01.003Z,4.63
2023-02-01T13:10:33.570Z,4.25
2023-02-01T13:13:01.259Z,4.32
2023-02-01T13:15:32.515Z,4.03
2023-02-01T13:18:02.725Z,4.50
2023-02-01T13:20:33.257Z,5.40
2023-02-01T13:23:04.774Z,4.47
2023-02-01T13:28:00.190Z,3.88
2023-02-01T13:30:40.794Z,4.85
2023-02-01T13:33:54.693Z,4.70
2023-02-01T13:36:10.007Z,4.95
2023-02-01T13:38:44.921Z,4.13
2023-02-01T13:41:11.093Z,4.85
2023-02-01T13:43:39.808Z,4.15
2023-02-01T13:46:08.361Z,4.75
2023-02-01T13:48:41.114Z,4.13
2023-02-01T13:51:07.845Z,4.30
2023-02-01T13:53:37.779Z,4.13
2023-02-01T13:56:13.768Z,3.55
2023-02-01T13:58:40.926Z,4.03
2023-02-01T14:01:22.472Z,4.32
2023-02-01T14:06:17.627Z,3.92
2023-02-01T14:08:44.613Z,4.60
2023-02-01T14:11:29.659Z,3.67
2023-02-01T14:13:55.875Z,4.13
2023-02-01T14:16:22.387Z,4.45
2023-02-01T14:18:48.865Z,3.90
2023-02-01T14:21:24.687Z,3.80
2023-02-01T14:24:11.185Z,3.95
2023-02-01T14:26:44.950Z,4.70
2023-02-01T14:29:21.101Z,4.00
2023-02-01T14:31:47.853Z,3.65
2023-02-01T14:34:16.314Z,3.72
2023-02-01T14:36:45.203Z,3.30
2023-02-01T14:39:32.067Z,3.25
2023-02-01T14:42:02.246Z,3.53
2023-02-01T14:44:30.491Z,3.60
2023-02-01T14:47:28.058Z,3.97
2023-02-01T14:49:56.914Z,3.95
2023-02-01T14:52:29.595Z,3.92
2023-02-01T14:54:56.983Z,4.07
2023-02-01T14:57:25.861Z,4.10
2023-02-01T14:59:54.733Z,3.72
2023-02-01T15:02:27.824Z,4.07
2023-02-01T15:04:55.110Z,3.88
2023-02-01T15:07:21.681Z,2.97
2023-02-01T15:09:48.824Z,3.58
2023-02-01T15:12:21.190Z,3.83
2023-02-01T15:14:50.046Z,3.42
2023-02-01T15:17:34.533Z,3.60
2023-02-01T15:20:01.922Z,4.28
2023-02-01T15:22:28.969Z,3.58
2023-02-01T15:24:56.562Z,3.35
2023-02-01T15:27:22.943Z,3.15
2023-02-01T15:29:49.250Z,3.10
2023-02-01T15:32:35.463Z,3.47
2023-02-01T15:35:01.834Z,3.47
2023-02-01T15:37:29.085Z,3.88
2023-02-01T15:40:10.752Z,3.53
2023-02-01T15:45:03.384Z,3.53
2023-02-01T15:47:31.698Z,3.40
2023-02-01T15:49:59.343Z,3.10
2023-02-01T15:52:28.719Z,3.78
2023-02-01T15:54:57.491Z,4.18
2023-02-01T15:57:35.151Z,4.20
2023-02-01T16:00:04.305Z,3.67
2023-02-01T16:02:35.319Z,3.60
2023-02-01T16:05:02.789Z,3.30
2023-02-01T16:07:30.307Z,3.65
2023-02-01T16:09:58.203Z,3.08
2023-02-01T16:12:52.109Z,3.15
2023-02-01T16:15:18.329Z,4.22
2023-02-01T16:17:46.585Z,3.33
2023-02-01T16:20:13.350Z,3.35
2023-02-01T16:22:39.592Z,4.22
2023-02-01T16:25:06.066Z,5.28
2023-02-01T16:27:32.440Z,5.00
2023-02-01T16:29:58.633Z,4.07
2023-02-01T16:32:25.177Z,4.13
2023-02-01T16:34:51.393Z,3.70
2023-02-01T16:37:20.691Z,3.50
2023-02-01T16:39:46.993Z,4.25
2023-02-01T16:42:14.343Z,3.85
2023-02-01T16:44:40.896Z,3.92
2023-02-01T16:47:33.830Z,3.83
2023-02-01T16:50:01.525Z,4.72
2023-02-01T16:52:29.017Z,3.92
2023-02-01T16:54:55.212Z,4.30
2023-02-01T16:57:24.754Z,4.90
2023-02-01T16:59:50.976Z,4.38
2023-02-01T17:02:19.889Z,4.20
2023-02-01T17:04:46.620Z,4.90
2023-02-01T17:07:14.819Z,4.47
2023-02-01T17:09:41.141Z,4.50
2023-02-01T17:12:07.789Z,4.07
2023-02-01T17:14:37.519Z,4.40
2023-02-01T17:17:05.180Z,4.57
2023-02-01T17:19:32.931Z,4.72
2023-02-01T17:21:59.630Z,4.43
2023-02-01T17:24:35.746Z,4.50
2023-02-01T17:27:05.433Z,4.75
2023-02-01T17:29:31.799Z,3.85
2023-02-01T17:32:00.397Z,3.97
2023-02-01T17:34:27.103Z,4.97
2023-02-01T17:36:53.383Z,4.88
2023-02-01T17:39:38.171Z,3.90
2023-02-01T17:42:05.234Z,4.55
2023-02-01T17:44:31.888Z,4.28
2023-02-01T17:46:59.673Z,4.75
2023-02-01T17:49:28.607Z,5.43
2023-02-01T17:51:55.685Z,4.78
2023-02-01T17:54:22.190Z,4.18
2023-02-01T17:56:48.485Z,5.45
2023-02-01T17:59:15.374Z,3.95
2023-02-01T18:01:41.831Z,5.00
2023-02-01T18:04:16.135Z,4.75
2023-02-01T18:06:42.315Z,4.60
2023-02-01T18:09:09.049Z,5.25
2023-02-01T18:11:35.347Z,4.10
2023-02-01T18:14:01.590Z,5.10
2023-02-01T18:16:28.821Z,4.72
2023-02-01T18:18:55.320Z,4.15
2023-02-01T18:21:22.678Z,4.78
2023-02-01T18:23:49.661Z,5.70
2023-02-01T18:26:17.030Z,6.00
2023-02-01T18:28:43.477Z,4.32
2023-02-01T18:31:22.021Z,4.68
2023-02-01T18:33:49.685Z,4.65
2023-02-01T18:36:15.918Z,5.57
2023-02-01T18:38:42.371Z,5.05
2023-02-01T18:41:13.149Z,5.60
2023-02-01T18:43:39.758Z,4.55
2023-02-01T18:46:07.160Z,5.05
2023-02-01T18:48:33.479Z,5.10
2023-02-01T18:50:59.713Z,5.60
2023-02-01T18:53:27.464Z,4.95
2023-02-01T18:55:54.955Z,5.53
2023-02-01T18:58:26.097Z,6.22
2023-02-01T19:00:53.226Z,5.43
2023-02-01T19:03:19.505Z,4.38
2023-02-01T19:05:46.432Z,5.28
2023-02-01T19:08:13.383Z,5.18
2023-02-01T19:10:41.567Z,5.47
2023-02-01T19:13:09.933Z,5.07
2023-02-01T19:15:40.218Z,5.40
2023-02-01T19:18:06.931Z,5.20
2023-02-01T19:20:33.196Z,5.20
2023-02-01T19:22:59.397Z,5.55
2023-02-01T19:25:27.353Z,5.25
2023-02-01T19:27:53.754Z,5.60
2023-02-01T19:30:20.932Z,4.50
2023-02-01T19:32:47.336Z,6.03
2023-02-01T19:35:14.598Z,5.68
2023-02-01T19:37:41.537Z,4.90
2023-02-01T19:40:09.350Z,5.20
2023-02-01T19:42:35.572Z,5.20
2023-02-01T19:45:01.786Z,5.22
2023-02-01T19:47:28.109Z,5.90
2023-02-01T19:49:54.315Z,5.93
2023-02-01T19:52:20.570Z,5.80
2023-02-01T19:54:46.894Z,5.53
2023-02-01T19:57:13.389Z,5.38
2023-02-01T19:59:39.605Z,4.88
2023-02-01T20:02:05.019Z,4.95
2023-02-01T20:04:31.280Z,5.15
2023-02-01T20:06:57.618Z,5.22
2023-02-01T20:09:25.184Z,4.93
2023-02-01T20:11:53.775Z,5.72
2023-02-01T20:14:21.187Z,5.00
2023-02-01T20:16:47.767Z,4.97
2023-02-01T20:19:13.990Z,4.72
2023-02-01T20:21:43.087Z,5.43
2023-02-01T20:24:11.784Z,4.80
2023-02-01T20:26:39.007Z,4.95
2023-02-01T20:29:05.573Z,5.10
2023-02-01T20:31:31.901Z,4.75
2023-02-01T20:33:59.086Z,5.22
2023-02-01T20:36:26.475Z,4.95
2023-02-01T20:38:53.268Z,4.85
2023-02-01T20:41:20.015Z,5.15
2023-02-01T20:43:46.372Z,4.80
2023-02-01T20:46:12.911Z,4.15
2023-02-01T20:48:42.069Z,5.25
2023-02-01T20:51:09.154Z,5.03
2023-02-01T20:53:35.373Z,5.43
2023-02-01T20:56:01.606Z,4.90
2023-02-01T20:58:27.915Z,5.05
2023-02-01T21:00:54.131Z,4.45
2023-02-01T21:03:20.875Z,5.15
2023-02-01T21:05:48.500Z,5.15
2023-02-01T21:08:15.295Z,5.20
2023-02-01T21:10:41.870Z,4.32
2023-02-01T21:13:08.894Z,5.57
2023-02-01T21:15:35.106Z,4.97
2023-02-01T21:18:01.800Z,5.13
2023-02-01T21:20:28.617Z,5.57
2023-02-01T21:22:54.925Z,4.95
2023-02-01T21:25:21.281Z,5.88
2023-02-01T21:27:47.720Z,5.72
2023-02-01T21:30:14.399Z,5.43
2023-02-01T21:32:40.619Z,5.38
2023-02-01T21:35:07.193Z,5.85
2023-02-01T21:37:33.823Z,6.15
2023-02-01T21:40:00.504Z,5.60
2023-02-01T21:42:27.288Z,5.43
2023-02-01T21:44:53.868Z,5.07
2023-02-01T21:47:24.159Z,6.20
2023-02-01T21:49:53.138Z,5.60
2023-02-01T21:52:19.700Z,5.35
2023-02-01T21:54:45.986Z,5.97
2023-02-01T21:57:12.522Z,5.85
2023-02-01T21:59:40.261Z,5.20
2023-02-01T22:02:06.954Z,6.13
2023-02-01T22:04:33.441Z,6.40
2023-02-01T22:06:59.638Z,5.20
2023-02-01T22:09:26.189Z,5.90
2023-02-01T22:11:53.508Z,6.35
2023-02-01T22:14:20.070Z,5.82
2023-02-01T22:16:46.591Z,6.28
2023-02-01T22:19:13.468Z,5.85
2023-02-01T22:21:41.960Z,6.63
2023-02-01T22:24:09.591Z,6.55
2023-02-01T22:26:36.213Z,5.55
2023-02-01T22:29:02.440Z,5.68
2023-02-01T22:31:28.834Z,6.70
2023-02-01T22:33:56.802Z,5.72
2023-02-01T22:36:25.036Z,6.15
2023-02-01T22:38:52.034Z,5.60
2023-02-01T22:41:18.886Z,6.13
2023-02-01T22:43:45.545Z,5.72
2023-02-01T22:46:14.424Z,6.18
2023-02-01T22:48:41.683Z,6.00
2023-02-01T22:51:11.465Z,5.63
2023-02-01T22:53:37.783Z,6.22
2023-02-01T22:56:05.298Z,6.15
2023-02-01T22:58:31.841Z,6.07
2023-02-01T23:01:07.807Z,5.68
2023-02-01T23:03:35.188Z,5.72
2023-02-01T23:06:01.763Z,5.43
2023-02-01T23:08:27.976Z,6.55
2023-02-01T23:10:58.234Z,7.13
2023-02-01T23:13:24.448Z,6.30
2023-02-01T23:15:50.656Z,6.38
2023-02-01T23:18:16.894Z,5.10
2023-02-01T23:20:43.109Z,6.57
2023-02-01T23:23:09.361Z,5.03
2023-02-01T23:25:35.558Z,5.97
2023-02-01T23:28:01.759Z,5.93
2023-02-01T23:30:28.692Z,6.80
2023-02-01T23:32:55.075Z,5.43
2023-02-01T23:35:21.461Z,6.00
2023-02-01T23:37:47.808Z,7.03
2023-02-01T23:40:14.078Z,6.28
2023-02-01T23:42:40.276Z,5.63
2023-02-01T23:45:06.706Z,6.45
2023-02-01T23:47:33.221Z,6.15
2023-02-01T23:49:59.410Z,6.30
2023-02-01T23:52:25.637Z,6.35
2023-02-01T23:54:51.881Z,7.05
2023-02-01T23:57:18.127Z,6.32
2023-02-01T23:59:44.375Z,5.85
